Time;durP1;ratioP1;P1;durP2;ratioP2;P2;SDS_P1;SDS_P2;PMS_P1;PMS_P2;Temp;Humidity;BMP_temperature;BMP_pressure;BME280_temperature;BME280_humidity;BME280_pressure;Samples;Min_cycle;Max_cycle;Signal;HPM_P1;HPM_P2
2023/03/27 00:01:22;;;;;;;1999.90;999.90;;;6.60;99.90;;;;;;5021311;28;20046;-79
2023/03/27 00:03:49;;;;;;;1999.90;999.90;;;6.60;99.90;;;;;;5010354;28;20039;-79
2023/03/27 00:06:16;;;;;;;1999.90;999.90;;;6.60;99.90;;;;;;4996885;28;20123;-79
2023/03/27 00:08:43;;;;;;;1999.90;999.90;;;6.60;99.90;;;;;;4997992;28;20037;-79
2023/03/27 00:11:08;;;;;;;1999.90;999.90;;;6.60;99.90;;;;;;4998837;28;20053;-79
2023/03/27 00:13:36;;;;;;;1999.90;999.90;;;6.60;99.90;;;;;;4998294;28;20097;-79
2023/03/27 00:16:04;;;;;;;1999.90;999.90;;;6.60;99.90;;;;;;4997953;28;20808;-79
2023/03/27 00:18:29;;;;;;;1999.90;999.90;;;6.60;99.90;;;;;;4996630;28;20071;-79
2023/03/27 00:20:59;;;;;;;1999.90;999.90;;;6.50;99.90;;;;;;4998145;28;20490;-79
2023/03/27 00:23:28;;;;;;;1999.90;999.90;;;6.50;99.90;;;;;;4998193;28;20580;-79
2023/03/27 00:25:56;;;;;;;1999.90;999.90;;;6.60;99.90;;;;;;4996463;28;20043;-79
2023/03/27 00:28:27;;;;;;;1999.90;999.90;;;6.50;99.90;;;;;;4996766;28;20070;-79
2023/03/27 00:30:54;;;;;;;1999.90;999.90;;;6.40;99.90;;;;;;4998272;28;20043;-79
2023/03/27 00:33:21;;;;;;;1999.90;999.90;;;6.30;99.90;;;;;;4998022;28;20034;-79
2023/03/27 00:35:48;;;;;;;1999.90;999.90;;;6.20;99.90;;;;;;4995476;28;20046;-79
2023/03/27 00:38:15;;;;;;;1999.90;999.90;;;6.10;99.90;;;;;;4997589;28;20034;-80
2023/03/27 00:40:45;;;;;;;1999.90;999.90;;;6.00;99.90;;;;;;4997843;28;20505;-80
2023/03/27 00:43:19;;;;;;;1999.90;999.90;;;5.90;99.90;;;;;;4996619;28;20182;-79
2023/03/27 00:45:46;;;;;;;1999.90;999.90;;;5.80;99.90;;;;;;4995979;28;20062;-79
2023/03/27 00:48:13;;;;;;;1999.90;999.90;;;5.70;99.90;;;;;;4996134;28;20186;-80
2023/03/27 00:50:43;;;;;;;1999.90;999.90;;;5.70;99.90;;;;;;4997812;28;20049;-79
2023/03/27 00:53:15;;;;;;;1999.90;999.90;;;5.60;99.90;;;;;;4997786;28;20053;-79
2023/03/27 00:55:45;;;;;;;1999.90;999.90;;;5.60;99.90;;;;;;4997031;28;20042;-80
2023/03/27 00:58:17;;;;;;;1999.90;999.90;;;5.50;99.90;;;;;;4995539;28;20030;-79
2023/03/27 01:00:42;;;;;;;1999.90;999.90;;;5.50;99.90;;;;;;4997541;28;20412;-78
2023/03/27 01:03:10;;;;;;;1999.90;999.90;;;5.40;99.90;;;;;;4995835;28;20043;-79
2023/03/27 01:05:36;;;;;;;1999.90;999.90;;;5.40;99.90;;;;;;4997464;28;20520;-81
2023/03/27 01:08:02;;;;;;;1999.90;999.90;;;5.40;99.90;;;;;;4995753;28;20424;-79
2023/03/27 01:10:51;;;;;;;1999.90;999.90;;;5.40;99.90;;;;;;4996157;28;20035;-79
2023/03/27 01:13:26;;;;;;;1999.90;999.90;;;5.30;99.90;;;;;;4995608;28;20501;-79
2023/03/27 01:16:07;;;;;;;1999.90;999.90;;;5.30;99.90;;;;;;4995798;28;20034;-79
2023/03/27 01:18:58;;;;;;;1999.90;999.90;;;5.30;99.90;;;;;;4999934;28;20038;-79
2023/03/27 01:21:26;;;;;;;1999.90;999.90;;;5.10;99.90;;;;;;5016634;28;20518;-79
2023/03/27 01:24:33;;;;;;;1999.90;999.90;;;5.10;99.90;;;;;;5016459;28;20515;-81
2023/03/27 01:27:01;;;;;;;1999.90;999.90;;;5.00;99.90;;;;;;5014092;28;20049;-79
2023/03/27 01:29:52;;;;;;;1999.90;999.90;;;5.00;99.90;;;;;;4994908;28;20035;-81
2023/03/27 01:32:46;;;;;;;1999.90;999.90;;;4.90;99.90;;;;;;4996230;28;20055;-79
2023/03/27 01:35:35;;;;;;;1999.90;999.90;;;4.90;99.90;;;;;;4997287;28;20031;-79
2023/03/27 01:38:04;;;;;;;1999.90;999.90;;;4.90;99.90;;;;;;5051811;22;20046;-78
2023/03/27 01:40:40;;;;;;;1999.90;999.90;;;4.90;99.90;;;;;;5035379;28;20062;-78
2023/03/27 01:43:16;;;;;;;1999.90;999.90;;;4.90;99.90;;;;;;5035885;28;20037;-78
2023/03/27 01:45:49;;;;;;;1999.90;999.90;;;4.90;99.90;;;;;;5032281;28;20121;-78
2023/03/27 01:48:27;;;;;;;1999.90;999.90;;;4.90;99.90;;;;;;5020056;28;20037;-78
2023/03/27 01:50:58;;;;;;;1999.90;999.90;;;4.90;99.90;;;;;;5035801;28;20045;-78
2023/03/27 01:53:27;;;;;;;1999.90;999.90;;;4.90;99.90;;;;;;5035773;28;20029;-78
2023/03/27 01:56:00;;;;;;;1999.90;999.90;;;4.90;99.90;;;;;;5034988;28;20026;-78
2023/03/27 01:58:34;;;;;;;1999.90;999.90;;;4.90;99.90;;;;;;5035611;28;20092;-78
2023/03/27 02:01:02;;;;;;;1999.90;999.90;;;4.80;99.90;;;;;;5035523;28;20076;-78
2023/03/27 02:03:44;;;;;;;1999.90;999.90;;;4.80;99.90;;;;;;5035455;28;20530;-78
2023/03/27 02:06:15;;;;;;;1999.90;999.90;;;4.70;99.90;;;;;;5034801;28;20042;-78
2023/03/27 02:08:47;;;;;;;1999.90;999.90;;;4.70;99.90;;;;;;5033232;28;20073;-78
2023/03/27 02:11:13;;;;;;;1999.90;999.90;;;4.70;99.90;;;;;;5035078;28;20034;-78
2023/03/27 02:13:51;;;;;;;1999.90;999.90;;;4.60;99.90;;;;;;5035415;28;20038;-78
2023/03/27 02:16:21;;;;;;;1999.90;999.90;;;4.60;99.90;;;;;;5035144;28;20048;-78
2023/03/27 02:19:03;;;;;;;1999.90;999.90;;;4.60;99.90;;;;;;5027135;28;20030;-78
2023/03/27 02:21:32;;;;;;;1999.90;999.90;;;4.60;99.90;;;;;;5013915;28;20527;-78
2023/03/27 02:24:00;;;;;;;1999.90;999.90;;;4.60;99.90;;;;;;5017723;28;20034;-78
2023/03/27 02:26:27;;;;;;;1999.90;999.90;;;4.60;99.90;;;;;;5034833;28;20482;-78
2023/03/27 02:28:56;;;;;;;1999.90;999.90;;;4.60;99.90;;;;;;5035118;28;20108;-78
2023/03/27 02:31:52;;;;;;;1999.90;999.90;;;4.60;99.90;;;;;;5034766;28;20046;-78
2023/03/27 02:34:55;;;;;;;1999.90;999.90;;;4.50;99.90;;;;;;5034557;28;20072;-78
2023/03/27 02:37:37;;;;;;;1999.90;999.90;;;4.40;99.90;;;;;;5034672;28;20069;-78
2023/03/27 02:40:32;;;;;;;1999.90;999.90;;;4.40;99.90;;;;;;5034904;28;20121;-78
2023/03/27 02:43:08;;;;;;;1999.90;999.90;;;4.30;99.90;;;;;;5034954;28;20033;-78
2023/03/27 02:45:52;;;;;;;1999.90;999.90;;;4.30;99.90;;;;;;5034660;28;20034;-78
2023/03/27 02:48:38;;;;;;;1999.90;999.90;;;4.20;99.90;;;;;;5034866;28;20033;-78
2023/03/27 02:51:23;;;;;;;1999.90;999.90;;;4.10;99.90;;;;;;5034872;28;20500;-78
2023/03/27 02:54:15;;;;;;;1999.90;999.90;;;4.10;99.90;;;;;;5034593;28;20096;-78
2023/03/27 02:56:48;;;;;;;1999.90;999.90;;;4.10;99.90;;;;;;5033954;28;20089;-78
2023/03/27 02:59:29;;;;;;;1999.90;999.90;;;4.00;99.90;;;;;;5034609;28;20040;-78
2023/03/27 03:01:56;;;;;;;1999.90;999.90;;;3.90;99.90;;;;;;5034732;28;20038;-78
2023/03/27 03:04:31;;;;;;;1999.90;999.90;;;3.80;99.90;;;;;;5034091;28;20037;-78
2023/03/27 03:06:57;;;;;;;1999.90;999.90;;;3.80;99.90;;;;;;5034153;28;20042;-78
2023/03/27 03:09:24;;;;;;;1999.90;999.90;;;3.80;99.90;;;;;;5032957;28;20411;-78
2023/03/27 03:11:51;;;;;;;1999.90;999.90;;;3.70;99.90;;;;;;5034732;28;20105;-78
2023/03/27 03:14:25;;;;;;;1999.90;999.90;;;3.70;99.90;;;;;;5034388;28;20040;-78
2023/03/27 03:16:50;;;;;;;1999.90;999.90;;;3.70;99.90;;;;;;5034363;28;20053;-78
2023/03/27 03:19:16;;;;;;;1999.90;999.90;;;3.70;99.90;;;;;;5034456;28;20029;-77
2023/03/27 03:21:42;;;;;;;1999.90;999.90;;;3.70;99.90;;;;;;5037324;28;20048;-77
2023/03/27 03:24:07;;;;;;;1999.90;999.90;;;3.70;99.90;;;;;;5039282;28;20101;-78
2023/03/27 03:26:33;;;;;;;1999.90;999.90;;;3.70;99.90;;;;;;5030488;28;20030;-78
2023/03/27 03:28:59;;;;;;;1999.90;999.90;;;3.70;99.90;;;;;;5018770;28;20852;-78
2023/03/27 03:31:25;;;;;;;1999.90;999.90;;;3.70;99.90;;;;;;5025601;28;20033;-78
2023/03/27 03:33:51;;;;;;;1999.90;999.90;;;3.70;99.90;;;;;;5037351;28;20044;-78
2023/03/27 03:36:16;;;;;;;1999.90;999.90;;;3.70;99.90;;;;;;5030970;28;20093;-78
2023/03/27 03:38:42;;;;;;;1999.90;999.90;;;3.70;99.90;;;;;;5018096;28;20050;-78
2023/03/27 03:41:07;;;;;;;1999.90;999.90;;;3.70;99.90;;;;;;5017723;28;20046;-78
2023/03/27 03:43:34;;;;;;;1999.90;999.90;;;3.70;99.90;;;;;;5016267;28;20031;-78
2023/03/27 03:45:59;;;;;;;1999.90;999.90;;;3.80;99.90;;;;;;5019368;28;20077;-78
2023/03/27 03:48:26;;;;;;;1999.90;999.90;;;3.80;99.90;;;;;;5037475;28;20068;-78
2023/03/27 03:50:51;;;;;;;1999.90;999.90;;;3.80;99.90;;;;;;5037269;28;20041;-78
2023/03/27 03:53:19;;;;;;;1999.90;999.90;;;3.70;99.90;;;;;;5037519;28;20045;-77
2023/03/27 03:55:45;;;;;;;1999.90;999.90;;;3.70;99.90;;;;;;5036855;28;20061;-78
2023/03/27 03:58:11;;;;;;;1999.90;999.90;;;3.60;99.90;;;;;;5034927;28;20466;-77
2023/03/27 04:00:38;;;;;;;1999.90;999.90;;;3.40;99.90;;;;;;5035931;28;20045;-78
2023/03/27 04:03:06;;;;;;;1999.90;999.90;;;3.30;99.90;;;;;;5017357;28;20031;-77
2023/03/27 04:05:33;;;;;;;1999.90;999.90;;;3.10;99.90;;;;;;5017067;28;20479;-77
2023/03/27 04:07:59;;;;;;;1999.90;999.90;;;3.00;99.90;;;;;;5016909;28;20038;-77
2023/03/27 04:10:28;;;;;;;1999.90;999.90;;;2.90;99.90;;;;;;5017373;28;20030;-78
2023/03/27 04:12:53;;;;;;;1999.90;999.90;;;2.90;99.90;;;;;;5015716;28;20030;-78
2023/03/27 04:15:19;;;;;;;1999.90;999.90;;;2.80;99.90;;;;;;5017008;28;20039;-77
2023/03/27 04:17:47;;;;;;;1999.90;999.90;;;2.80;99.90;;;;;;5015300;28;20117;-77
2023/03/27 04:20:13;;;;;;;1999.90;999.90;;;2.70;99.90;;;;;;5016986;28;20078;-77
2023/03/27 04:22:48;;;;;;;1999.90;999.90;;;2.80;99.90;;;;;;5017174;28;20034;-77
2023/03/27 04:25:16;;;;;;;1999.90;999.90;;;2.80;99.90;;;;;;5015391;28;20117;-77
2023/03/27 04:27:43;;;;;;;1999.90;999.90;;;2.80;99.90;;;;;;5016874;28;20030;-77
2023/03/27 04:30:09;;;;;;;1999.90;999.90;;;2.80;99.90;;;;;;5017019;28;20031;-77
2023/03/27 04:32:35;;;;;;;1999.90;999.90;;;2.80;99.90;;;;;;5015986;28;20026;-77
2023/03/27 04:35:01;;;;;;;1999.90;999.90;;;2.80;99.90;;;;;;5016552;28;20049;-78
2023/03/27 04:37:27;;;;;;;1999.90;999.90;;;2.80;99.90;;;;;;5030053;28;20034;-77
2023/03/27 04:39:53;;;;;;;1999.90;999.90;;;2.80;99.90;;;;;;5035149;28;20404;-77
2023/03/27 04:42:22;;;;;;;1999.90;999.90;;;2.70;99.90;;;;;;5036670;28;20033;-77
2023/03/27 04:44:49;;;;;;;1999.90;999.90;;;2.70;99.90;;;;;;5034782;28;20041;-78
2023/03/27 04:47:14;;;;;;;1999.90;999.90;;;2.80;99.90;;;;;;5022991;28;20109;-77
2023/03/27 04:49:42;;;;;;;1999.90;999.90;;;2.80;99.90;;;;;;5016749;28;20030;-77
2023/03/27 04:52:08;;;;;;;1999.90;999.90;;;2.80;99.90;;;;;;5016616;28;20026;-77
2023/03/27 04:54:34;;;;;;;1999.90;999.90;;;2.80;99.90;;;;;;5016244;28;20042;-77
2023/03/27 04:57:02;;;;;;;1999.90;999.90;;;2.80;99.90;;;;;;5016336;28;20495;-77
2023/03/27 04:59:30;;;;;;;1999.90;999.90;;;2.90;99.90;;;;;;5016946;28;20038;-77
2023/03/27 05:01:57;;;;;;;1999.90;999.90;;;3.00;99.90;;;;;;5022028;28;20040;-77
2023/03/27 05:04:25;;;;;;;1999.90;999.90;;;3.00;99.90;;;;;;5035991;28;20096;-77
2023/03/27 05:06:52;;;;;;;1999.90;999.90;;;3.10;99.90;;;;;;5035890;28;20060;-77
2023/03/27 05:09:17;;;;;;;1999.90;999.90;;;3.10;99.90;;;;;;5036261;28;20113;-78
2023/03/27 05:11:48;;;;;;;1999.90;999.90;;;3.10;99.90;;;;;;5035827;28;20117;-76
2023/03/27 05:14:17;;;;;;;1999.90;999.90;;;3.20;99.90;;;;;;5036243;28;20041;-77
2023/03/27 05:16:43;;;;;;;1999.90;999.90;;;3.10;99.90;;;;;;5035974;28;20038;-77
2023/03/27 05:19:10;;;;;;;1999.90;999.90;;;3.20;99.90;;;;;;5035599;28;20384;-77
2023/03/27 05:21:36;;;;;;;1999.90;999.90;;;3.20;99.90;;;;;;5016114;28;20130;-77
2023/03/27 05:24:02;;;;;;;1999.90;999.90;;;3.20;99.90;;;;;;5015946;28;20165;-77
2023/03/27 05:26:27;;;;;;;1999.90;999.90;;;3.10;99.90;;;;;;5022549;28;20076;-77
2023/03/27 05:28:54;;;;;;;1999.90;999.90;;;3.10;99.90;;;;;;5023420;28;20150;-76
2023/03/27 05:31:21;;;;;;;1999.90;999.90;;;3.00;99.90;;;;;;5016555;28;20038;-78
2023/03/27 05:33:47;;;;;;;1999.90;999.90;;;3.00;99.90;;;;;;5015762;28;20488;-77
2023/03/27 05:36:14;;;;;;;1999.90;999.90;;;3.00;99.90;;;;;;5015628;28;20088;-78
2023/03/27 05:38:40;;;;;;;1999.90;999.90;;;3.00;99.90;;;;;;5016194;28;20033;-76
2023/03/27 05:41:06;;;;;;;1999.90;999.90;;;3.00;99.90;;;;;;5016013;28;20041;-78
2023/03/27 05:43:31;;;;;;;1999.90;999.90;;;2.90;99.90;;;;;;5015830;28;20037;-81
2023/03/27 05:45:57;;;;;;;1999.90;999.90;;;2.80;99.90;;;;;;5019137;28;20514;-78
2023/03/27 05:48:22;;;;;;;1999.90;999.90;;;2.80;99.90;;;;;;5032256;28;20117;-77
2023/03/27 05:50:48;;;;;;;1999.90;999.90;;;2.90;99.90;;;;;;5033632;28;20033;-78
2023/03/27 05:53:14;;;;;;;1999.90;999.90;;;2.80;99.90;;;;;;5035513;28;20092;-77
2023/03/27 05:55:40;;;;;;;1999.90;999.90;;;2.80;99.90;;;;;;5034785;28;20101;-77
2023/03/27 05:58:08;;;;;;;1999.90;999.90;;;2.80;99.90;;;;;;5034402;28;20044;-77
2023/03/27 06:00:35;;;;;;;1999.90;999.90;;;2.80;99.90;;;;;;5035151;28;20904;-80
2023/03/27 06:03:02;;;;;;;1999.90;999.90;;;2.80;99.90;;;;;;5034405;28;20435;-77
2023/03/27 06:05:28;;;;;;;1999.90;999.90;;;2.70;99.90;;;;;;5035103;28;20037;-77
2023/03/27 06:07:58;;;;;;;1999.90;999.90;;;2.70;99.90;;;;;;5016784;28;20065;-82
2023/03/27 06:10:25;;;;;;;1999.90;999.90;;;2.60;99.90;;;;;;5013707;28;20038;-81
2023/03/27 06:13:06;;;;;;;1999.90;999.90;;;2.60;99.90;;;;;;5026694;28;20048;-76
2023/03/27 06:15:38;;;;;;;1999.90;999.90;;;2.50;99.90;;;;;;5031434;28;20101;-82
2023/03/27 06:18:04;;;;;;;1999.90;999.90;;;2.50;99.90;;;;;;5016828;28;20038;-76
2023/03/27 06:20:29;;;;;;;1999.90;999.90;;;2.40;99.90;;;;;;5019626;28;20451;-76
2023/03/27 06:23:00;;;;;;;1999.90;999.90;;;2.40;99.90;;;;;;5013836;28;20041;-76
2023/03/27 06:25:30;;;;;;;1999.90;999.90;;;2.40;99.90;;;;;;5034955;28;20033;-77
2023/03/27 06:27:56;;;;;;;1999.90;999.90;;;2.40;99.90;;;;;;5034580;28;20034;-81
2023/03/27 06:30:23;;;;;;;1999.90;999.90;;;2.50;99.90;;;;;;5034055;28;20408;-78
2023/03/27 06:32:57;;;;;;;1999.90;999.90;;;2.50;99.90;;;;;;5032831;28;20137;-74
2023/03/27 06:35:25;;;;;;;1999.90;999.90;;;2.50;99.90;;;;;;5033228;28;20038;-76
2023/03/27 06:37:51;;;;;;;1999.90;999.90;;;2.40;99.90;;;;;;5032145;28;20044;-76
2023/03/27 06:40:21;;;;;;;1999.90;999.90;;;2.40;99.90;;;;;;5028274;28;20045;-74
2023/03/27 06:42:58;;;;;;;1999.90;999.90;;;2.50;99.90;;;;;;5015271;28;20094;-75
2023/03/27 06:45:27;;;;;;;1999.90;999.90;;;2.50;99.90;;;;;;5017221;28;20047;-75
2023/03/27 06:47:55;;;;;;;1999.90;999.90;;;2.50;99.90;;;;;;5019815;28;20105;-76
2023/03/27 06:50:22;;;;;;;1999.90;999.90;;;2.60;99.90;;;;;;5029202;28;20400;-76
2023/03/27 06:52:47;;;;;;;1999.90;999.90;;;2.70;99.90;;;;;;5030986;28;20045;-75
2023/03/27 06:55:14;;;;;;;1999.90;999.90;;;2.80;99.90;;;;;;5026441;28;20034;-76
2023/03/27 06:57:44;;;;;;;1999.90;999.90;;;2.90;99.90;;;;;;5025206;28;20033;-77
2023/03/27 07:00:11;;;;;;;1999.90;999.90;;;2.80;99.90;;;;;;5015122;28;20038;-76
2023/03/27 07:02:38;;;;;;;1999.90;999.90;;;2.90;99.90;;;;;;5024138;28;20030;-78
2023/03/27 07:05:05;;;;;;;1999.90;999.90;;;3.00;99.90;;;;;;5036161;28;20045;-77
2023/03/27 07:07:30;;;;;;;1999.90;999.90;;;3.10;99.90;;;;;;5033005;28;20196;-78
2023/03/27 07:09:56;;;;;;;1999.90;999.90;;;3.20;99.90;;;;;;5034653;28;20567;-77
2023/03/27 07:12:21;;;;;;;1999.90;999.90;;;3.30;99.90;;;;;;5035309;28;20131;-77
2023/03/27 07:14:47;;;;;;;1999.90;999.90;;;3.50;99.90;;;;;;5035676;28;20156;-78
2023/03/27 07:17:12;;;;;;;1999.90;999.90;;;3.50;99.90;;;;;;5044425;28;20029;-77
2023/03/27 07:19:38;;;;;;;1999.90;999.90;;;3.60;99.90;;;;;;5028486;28;20034;-79
2023/03/27 07:22:03;;;;;;;1999.90;999.90;;;3.70;99.90;;;;;;5016045;28;20777;-78
2023/03/27 07:24:29;;;;;;;1999.90;999.90;;;3.80;99.90;;;;;;5013011;28;20022;-78
2023/03/27 07:26:55;;;;;;;1999.90;999.90;;;3.70;99.90;;;;;;5014438;28;20710;-78
2023/03/27 07:29:21;;;;;;;1999.90;999.90;;;3.90;99.90;;;;;;5014017;28;20038;-78
2023/03/27 07:31:46;;;;;;;1999.90;999.90;;;4.00;99.90;;;;;;5013996;28;20073;-79
2023/03/27 07:34:12;;;;;;;1999.90;999.90;;;3.90;99.90;;;;;;5015768;28;20392;-79
2023/03/27 07:36:37;;;;;;;1999.90;999.90;;;3.90;99.90;;;;;;5023790;28;20100;-78
2023/03/27 07:39:03;;;;;;;1999.90;999.90;;;3.90;99.90;;;;;;5032351;28;20149;-79
2023/03/27 07:41:29;;;;;;;1999.90;999.90;;;4.00;99.90;;;;;;5031858;28;20053;-79
2023/03/27 07:43:55;;;;;;;1999.90;999.90;;;4.00;99.90;;;;;;5014836;28;20432;-79
2023/03/27 07:46:22;;;;;;;1999.90;999.90;;;4.20;99.90;;;;;;5016193;28;20428;-77
2023/03/27 07:48:49;;;;;;;1999.90;999.90;;;4.10;99.90;;;;;;5033004;28;20125;-78
2023/03/27 07:51:16;;;;;;;1999.90;999.90;;;4.10;99.90;;;;;;5020941;28;20043;-78
2023/03/27 07:53:42;;;;;;;1999.90;999.90;;;4.20;99.90;;;;;;5014913;28;20184;-77
2023/03/27 07:56:09;;;;;;;1999.90;999.90;;;4.10;99.90;;;;;;5019143;28;20042;-77
2023/03/27 07:58:35;;;;;;;1999.90;999.90;;;4.20;99.90;;;;;;5034230;28;20502;-78
2023/03/27 08:01:01;;;;;;;1999.90;999.90;;;4.20;99.90;;;;;;5030762;28;20057;-76
2023/03/27 08:03:27;;;;;;;1999.90;999.90;;;4.20;99.90;;;;;;5012546;28;20113;-76
2023/03/27 08:05:54;;;;;;;1999.90;999.90;;;4.20;99.90;;;;;;5030694;28;20091;-76
2023/03/27 08:08:20;;;;;;;1999.90;999.90;;;4.20;99.90;;;;;;5032260;28;20035;-76
2023/03/27 08:10:46;;;;;;;1999.90;999.90;;;4.30;99.90;;;;;;5037260;28;20042;-77
2023/03/27 08:13:12;;;;;;;1999.90;999.90;;;4.50;99.90;;;;;;5036104;28;20763;-78
2023/03/27 08:15:38;;;;;;;1999.90;999.90;;;4.50;99.90;;;;;;5036867;28;20038;-76
2023/03/27 08:18:03;;;;;;;1999.90;999.90;;;4.50;99.90;;;;;;5033244;28;20057;-77
2023/03/27 08:20:29;;;;;;;1999.90;999.90;;;4.50;99.90;;;;;;5024099;28;20046;-77
2023/03/27 08:22:55;;;;;;;1999.90;999.90;;;4.60;99.90;;;;;;5016250;28;20424;-77
2023/03/27 08:25:21;;;;;;;1999.90;999.90;;;4.50;99.90;;;;;;5017096;28;20516;-77
2023/03/27 08:27:47;;;;;;;1999.90;999.90;;;4.60;99.90;;;;;;5017870;28;20034;-77
2023/03/27 08:30:13;;;;;;;1999.90;999.90;;;4.70;99.90;;;;;;5017036;28;20041;-78
2023/03/27 08:32:40;;;;;;;1999.90;999.90;;;4.70;99.90;;;;;;5017141;28;20460;-77
2023/03/27 08:35:07;;;;;;;1999.90;999.90;;;4.80;99.90;;;;;;5015346;28;20069;-77
2023/03/27 08:37:33;;;;;;;1999.90;999.90;;;4.90;99.90;;;;;;5019012;28;20070;-78
2023/03/27 08:40:00;;;;;;;1999.90;999.90;;;5.00;99.90;;;;;;5019421;28;20043;-77
2023/03/27 08:42:35;;;;;;;1999.90;999.90;;;5.20;99.90;;;;;;5015504;28;20027;-78
2023/03/27 08:45:12;;;;;;;1999.90;999.90;;;5.10;99.90;;;;;;5020065;28;20096;-78
2023/03/27 08:47:49;;;;;;;1999.90;999.90;;;5.10;99.90;;;;;;5035175;28;20082;-77
2023/03/27 08:50:31;;;;;;;1999.90;999.90;;;5.20;99.90;;;;;;5035398;28;20042;-78
2023/03/27 08:52:58;;;;;;;1999.90;999.90;;;5.40;99.90;;;;;;5025920;28;20085;-78
2023/03/27 08:55:32;;;;;;;1999.90;999.90;;;5.50;99.90;;;;;;5015107;28;20038;-77
2023/03/27 08:57:58;;;;;;;1999.90;999.90;;;5.70;99.90;;;;;;5015496;28;20038;-78
2023/03/27 09:00:30;;;;;;;1999.90;999.90;;;5.80;99.90;;;;;;5016670;28;20770;-78
2023/03/27 09:03:06;;;;;;;1999.90;999.90;;;5.80;99.90;;;;;;5017927;28;20072;-78
2023/03/27 09:05:47;;;;;;;1999.90;999.90;;;6.10;99.90;;;;;;5017439;28;20038;-78
2023/03/27 09:08:35;;;;;;;1999.90;999.90;;;6.30;99.90;;;;;;5015247;28;20495;-78
2023/03/27 09:11:17;;;;;;;1999.90;999.90;;;6.20;99.90;;;;;;5033913;28;20033;-78
2023/03/27 09:13:47;;;;;;;1999.90;999.90;;;6.30;99.90;;;;;;5037236;28;20383;-78
2023/03/27 09:16:29;;;;;;;1999.90;999.90;;;6.10;99.90;;;;;;5036815;28;20038;-77
2023/03/27 09:18:57;;;;;;;1999.90;999.90;;;6.30;99.90;;;;;;5036626;28;20030;-79
2023/03/27 09:21:33;;;;;;;1999.90;999.90;;;6.50;99.90;;;;;;5036140;28;20451;-80
2023/03/27 09:24:03;;;;;;;1999.90;999.90;;;6.90;99.90;;;;;;5035930;28;20030;-80
2023/03/27 09:26:34;;;;;;;1999.90;999.90;;;6.90;99.60;;;;;;5029650;28;20030;-78
2023/03/27 09:29:16;;;;;;;1999.90;999.90;;;6.50;99.60;;;;;;5016571;28;20097;-80
2023/03/27 09:31:50;;;;;;;1999.90;999.90;;;6.20;98.90;;;;;;5015769;28;20065;-79
2023/03/27 09:34:24;;;;;;;1999.90;999.90;;;6.30;99.80;;;;;;5024513;28;20030;-79
2023/03/27 09:36:50;;;;;;;1999.90;999.90;;;6.40;99.90;;;;;;5036468;28;20037;-79
2023/03/27 09:39:21;;;;;;;1999.90;999.90;;;6.60;99.70;;;;;;5034811;28;20490;-81
2023/03/27 09:41:54;;;;;;;1999.90;999.90;;;6.90;98.40;;;;;;5035090;28;20057;-76
2023/03/27 09:44:27;;;;;;;1999.90;999.90;;;7.20;97.30;;;;;;5034596;28;20056;-76
2023/03/27 09:47:01;;;;;;;1999.90;999.90;;;7.20;97.30;;;;;;5026252;28;20066;-76
2023/03/27 09:49:26;;;;;;;1999.90;999.90;;;7.10;95.50;;;;;;5016017;28;20503;-75
2023/03/27 09:51:55;;;;;;;1999.90;999.90;;;7.30;96.00;;;;;;5014282;28;20049;-76
2023/03/27 09:54:23;;;;;;;1999.90;999.90;;;7.60;96.00;;;;;;5015341;28;20538;-75
2023/03/27 09:56:58;;;;;;;1999.90;999.90;;;7.90;95.20;;;;;;5015673;28;20038;-78
2023/03/27 09:59:33;;;;;;;1999.90;999.90;;;7.80;95.60;;;;;;5026728;28;20093;-76
2023/03/27 10:02:08;;;;;;;1999.90;999.90;;;7.30;96.70;;;;;;5035280;28;20121;-78
2023/03/27 10:04:34;;;;;;;1999.90;999.90;;;6.90;97.40;;;;;;5035301;28;20034;-80
2023/03/27 10:07:04;;;;;;;1999.90;999.90;;;6.90;94.30;;;;;;5033710;28;20782;-74
2023/03/27 10:09:34;;;;;;;1999.90;999.90;;;7.10;93.70;;;;;;5033709;28;20034;-75
2023/03/27 10:12:06;;;;;;;1999.90;999.90;;;7.30;93.20;;;;;;5022840;28;20096;-74
2023/03/27 10:14:44;;;;;;;1999.90;999.90;;;7.60;93.90;;;;;;5013609;28;20026;-76
2023/03/27 10:17:36;;;;;;;1999.90;999.90;;;7.70;93.70;;;;;;5020095;28;20089;-75
2023/03/27 10:20:08;;;;;;;1999.90;999.90;;;7.80;93.00;;;;;;5019379;28;20476;-82
2023/03/27 10:22:38;;;;;;;1999.90;999.90;;;8.10;93.90;;;;;;5015226;28;20567;-76
2023/03/27 10:25:16;;;;;;;1999.90;999.90;;;8.10;93.70;;;;;;5013661;28;20060;-78
2023/03/27 10:27:42;;;;;;;1999.90;999.90;;;8.90;91.80;;;;;;5014969;28;20096;-76
2023/03/27 10:30:23;;;;;;;1999.90;999.90;;;9.20;91.70;;;;;;5012848;28;20041;-76
2023/03/27 10:32:50;;;;;;;1999.90;999.90;;;8.90;90.80;;;;;;5016455;28;20041;-76
2023/03/27 10:35:27;;;;;;;1999.90;999.90;;;8.40;92.90;;;;;;5027635;28;20579;-76
2023/03/27 10:37:54;;;;;;;1999.90;999.90;;;7.90;94.00;;;;;;5034382;28;20034;-77
2023/03/27 10:40:25;;;;;;;1999.90;999.90;;;7.70;94.10;;;;;;5035581;28;20038;-77
2023/03/27 10:42:53;;;;;;;1999.90;999.90;;;7.50;91.80;;;;;;5019337;28;20113;-76
2023/03/27 10:45:20;;;;;;;1999.90;999.90;;;7.50;91.60;;;;;;5014838;28;20531;-76
2023/03/27 10:47:51;;;;;;;1999.90;999.90;;;7.80;92.20;;;;;;5015696;28;20476;-77
2023/03/27 10:50:28;;;;;;;1999.90;999.90;;;8.10;92.00;;;;;;5019152;28;20030;-80
2023/03/27 10:53:11;;;;;;;1999.90;999.90;;;8.30;90.60;;;;;;5021427;28;20062;-76
2023/03/27 10:56:00;;;;;;;1999.90;999.90;;;8.20;93.80;;;;;;5013552;28;20044;-76
2023/03/27 10:58:34;;;;;;;1999.90;999.90;;;8.20;91.90;;;;;;5022649;28;20042;-76
2023/03/27 11:01:22;;;;;;;1999.90;999.90;;;8.00;91.40;;;;;;5033312;28;20515;-75
2023/03/27 11:04:08;;;;;;;1999.90;999.90;;;8.20;91.70;;;;;;5015098;28;20038;-77
2023/03/27 11:06:39;;;;;;;1999.90;999.90;;;7.90;92.50;;;;;;5009233;28;20470;-77
2023/03/27 11:09:14;;;;;;;1999.90;999.90;;;8.20;92.60;;;;;;5020261;28;20035;-79
2023/03/27 11:11:48;;;;;;;1999.90;999.90;;;8.40;91.70;;;;;;5021268;28;20121;-76
2023/03/27 11:14:26;;;;;;;1999.90;999.90;;;8.60;91.70;;;;;;5014465;28;20034;-77
2023/03/27 11:16:57;;;;;;;1999.90;999.90;;;8.90;90.40;;;;;;5016213;28;20092;-76
2023/03/27 11:19:26;;;;;;;1999.90;999.90;;;9.10;90.70;;;;;;5035485;28;20037;-77
2023/03/27 11:22:04;;;;;;;1999.90;999.90;;;9.20;90.40;;;;;;5034843;28;20038;-77
2023/03/27 11:24:41;;;;;;;1999.90;999.90;;;9.50;90.00;;;;;;5036284;28;20034;-77
2023/03/27 11:27:15;;;;;;;1999.90;999.90;;;9.70;89.50;;;;;;5030041;28;20044;-77
2023/03/27 11:30:07;;;;;;;1999.90;999.90;;;9.80;85.80;;;;;;5013973;28;20038;-77
2023/03/27 11:33:03;;;;;;;1999.90;999.90;;;9.40;90.90;;;;;;5013209;28;20038;-77
2023/03/27 11:35:40;;;;;;;1999.90;999.90;;;9.20;91.40;;;;;;5016021;28;20031;-80
2023/03/27 11:38:21;;;;;;;1999.90;999.90;;;9.40;90.80;;;;;;5028212;28;20042;-80
2023/03/27 11:40:48;;;;;;;1999.90;999.90;;;8.90;91.60;;;;;;5033432;28;20065;-77
2023/03/27 11:43:16;;;;;;;1999.90;999.90;;;8.90;91.40;;;;;;5036234;28;20934;-78
2023/03/27 11:45:55;;;;;;;1999.90;999.90;;;9.10;87.50;;;;;;5028041;28;20061;-77
2023/03/27 11:48:42;;;;;;;1999.90;999.90;;;8.90;90.50;;;;;;5033564;28;20037;-78
2023/03/27 11:51:27;;;;;;;1999.90;999.90;;;8.90;90.80;;;;;;5032476;28;20037;-79
2023/03/27 11:54:30;;;;;;;1999.90;999.90;;;8.80;91.20;;;;;;5035200;28;20041;-75
2023/03/27 11:57:01;;;;;;;1999.90;999.90;;;9.30;91.80;;;;;;5017985;28;20046;-75
2023/03/27 12:00:09;;;;;;;1999.90;999.90;;;9.90;91.90;;;;;;5026000;28;20496;-75
2023/03/27 12:02:44;;;;;;;1999.90;999.90;;;9.70;90.70;;;;;;5034575;28;20092;-75
2023/03/27 12:05:37;;;;;;;1999.90;999.90;;;9.40;89.40;;;;;;5028460;28;20041;-75
2023/03/27 12:08:12;;;;;;;1999.90;999.90;;;9.30;89.20;;;;;;5020338;28;20775;-76
2023/03/27 12:10:41;;;;;;;1999.90;999.90;;;9.40;86.20;;;;;;5023224;28;20085;-76
2023/03/27 12:13:32;;;;;;;1999.90;999.90;;;9.30;88.50;;;;;;5025306;28;20038;-76
2023/03/27 12:16:15;;;;;;;1999.90;999.90;;;9.70;88.60;;;;;;5014979;28;20093;-75
2023/03/27 12:18:59;;;;;;;1999.90;999.90;;;10.10;88.40;;;;;;5022127;28;20050;-75
2023/03/27 12:21:45;;;;;;;1999.90;999.90;;;10.60;83.50;;;;;;5031544;28;20044;-76
2023/03/27 12:24:40;;;;;;;1999.90;999.90;;;10.60;85.70;;;;;;5034575;28;20030;-77
2023/03/27 12:27:46;;;;;;;1999.90;999.90;;;10.30;88.50;;;;;;5016887;28;20038;-77
2023/03/27 12:30:41;;;;;;;1999.90;999.90;;;10.00;86.60;;;;;;5022508;28;20034;-78